sensor_id;sensor_type;location;lat;lon;timestamp;temperature;humidity
24232;DHT22;12364;47.810;8.810;2023-06-26T03:47:51;21.40;83.90
24232;DHT22;12364;47.810;8.810;2023-06-26T03:50:18;21.50;83.80
24232;DHT22;12364;47.810;8.810;2023-06-26T03:52:45;21.40;83.70
24232;DHT22;12364;47.810;8.810;2023-06-26T03:55:12;21.40;84.00
24232;DHT22;12364;47.810;8.810;2023-06-26T03:57:39;21.60;84.30
24232;DHT22;12364;47.810;8.810;2023-06-26T04:00:06;21.40;84.10
24232;DHT22;12364;47.810;8.810;2023-06-26T04:02:38;21.50;84.10
24232;DHT22;12364;47.810;8.810;2023-06-26T04:05:05;21.50;84.00
24232;DHT22;12364;47.810;8.810;2023-06-26T04:07:32;21.30;84.20
24232;DHT22;12364;47.810;8.810;2023-06-26T04:10:00;21.30;84.30
24232;DHT22;12364;47.810;8.810;2023-06-26T04:12:27;21.60;84.60
24232;DHT22;12364;47.810;8.810;2023-06-26T04:14:54;21.30;84.50
24232;DHT22;12364;47.810;8.810;2023-06-26T04:17:21;21.30;84.50
24232;DHT22;12364;47.810;8.810;2023-06-26T04:19:48;21.60;84.80
24232;DHT22;12364;47.810;8.810;2023-06-26T04:22:15;21.30;84.70
24232;DHT22;12364;47.810;8.810;2023-06-26T04:24:42;21.40;84.60
24232;DHT22;12364;47.810;8.810;2023-06-26T04:27:12;21.40;84.50
24232;DHT22;12364;47.810;8.810;2023-06-26T04:29:43;21.40;84.60
24232;DHT22;12364;47.810;8.810;2023-06-26T04:32:10;21.40;84.60
24232;DHT22;12364;47.810;8.810;2023-06-26T04:34:37;21.50;85.00
24232;DHT22;12364;47.810;8.810;2023-06-26T04:37:07;21.40;84.90
24232;DHT22;12364;47.810;8.810;2023-06-26T04:39:36;21.40;84.90
24232;DHT22;12364;47.810;8.810;2023-06-26T04:42:04;21.40;84.70
24232;DHT22;12364;47.810;8.810;2023-06-26T04:44:31;21.30;85.10
24232;DHT22;12364;47.810;8.810;2023-06-26T04:46:59;21.30;85.30
24232;DHT22;12364;47.810;8.810;2023-06-26T04:49:26;21.30;85.40
24232;DHT22;12364;47.810;8.810;2023-06-26T04:51:54;21.40;85.60
24232;DHT22;12364;47.810;8.810;2023-06-26T04:54:21;21.20;86.00
24232;DHT22;12364;47.810;8.810;2023-06-26T04:56:49;21.10;86.60
24232;DHT22;12364;47.810;8.810;2023-06-26T04:59:16;21.10;86.90
24232;DHT22;12364;47.810;8.810;2023-06-26T05:01:43;21.40;87.00
24232;DHT22;12364;47.810;8.810;2023-06-26T05:04:15;21.20;86.80
24232;DHT22;12364;47.810;8.810;2023-06-26T05:06:42;21.30;86.70
24232;DHT22;12364;47.810;8.810;2023-06-26T05:09:09;21.40;86.70
24232;DHT22;12364;47.810;8.810;2023-06-26T05:11:37;21.30;86.70
24232;DHT22;12364;47.810;8.810;2023-06-26T05:14:05;21.20;86.90
24232;DHT22;12364;47.810;8.810;2023-06-26T05:16:34;21.10;87.10
24232;DHT22;12364;47.810;8.810;2023-06-26T05:19:01;21.10;87.50
24232;DHT22;12364;47.810;8.810;2023-06-26T05:21:29;21.20;87.70
24232;DHT22;12364;47.810;8.810;2023-06-26T05:23:56;21.20;87.50
24232;DHT22;12364;47.810;8.810;2023-06-26T05:26:25;21.30;87.80
24232;DHT22;12364;47.810;8.810;2023-06-26T05:28:52;21.30;87.80
24232;DHT22;12364;47.810;8.810;2023-06-26T05:31:19;21.40;87.70
24232;DHT22;12364;47.810;8.810;2023-06-26T05:33:46;21.50;87.50
24232;DHT22;12364;47.810;8.810;2023-06-26T05:36:14;21.60;87.50
24232;DHT22;12364;47.810;8.810;2023-06-26T05:38:42;21.60;87.50
24232;DHT22;12364;47.810;8.810;2023-06-26T05:41:10;21.50;87.50
24232;DHT22;12364;47.810;8.810;2023-06-26T05:43:37;21.60;87.10
24232;DHT22;12364;47.810;8.810;2023-06-26T05:46:04;21.70;87.40
24232;DHT22;12364;47.810;8.810;2023-06-26T05:48:31;21.70;87.60
24232;DHT22;12364;47.810;8.810;2023-06-26T05:50:58;21.70;87.30
24232;DHT22;12364;47.810;8.810;2023-06-26T05:53:25;21.70;87.80
24232;DHT22;12364;47.810;8.810;2023-06-26T05:55:52;21.70;86.60
24232;DHT22;12364;47.810;8.810;2023-06-26T05:58:20;21.80;87.50
24232;DHT22;12364;47.810;8.810;2023-06-26T06:00:47;21.90;87.50
24232;DHT22;12364;47.810;8.810;2023-06-26T06:03:14;22.10;87.00
24232;DHT22;12364;47.810;8.810;2023-06-26T06:05:41;22.10;85.10
24232;DHT22;12364;47.810;8.810;2023-06-26T06:08:08;22.20;83.30
24232;DHT22;12364;47.810;8.810;2023-06-26T06:10:35;22.20;83.70
24232;DHT22;12364;47.810;8.810;2023-06-26T06:13:02;22.20;83.80
24232;DHT22;12364;47.810;8.810;2023-06-26T06:15:30;22.30;84.50
24232;DHT22;12364;47.810;8.810;2023-06-26T06:17:57;22.40;85.00
24232;DHT22;12364;47.810;8.810;2023-06-26T06:20:24;22.50;85.80
24232;DHT22;12364;47.810;8.810;2023-06-26T06:22:51;22.50;86.70
24232;DHT22;12364;47.810;8.810;2023-06-26T06:25:18;22.60;86.60
24232;DHT22;12364;47.810;8.810;2023-06-26T06:27:45;22.70;86.50
24232;DHT22;12364;47.810;8.810;2023-06-26T06:30:12;22.80;86.20
24232;DHT22;12364;47.810;8.810;2023-06-26T06:32:39;22.80;87.30
24232;DHT22;12364;47.810;8.810;2023-06-26T06:35:06;22.90;87.20
24232;DHT22;12364;47.810;8.810;2023-06-26T06:37:37;23.00;86.80
24232;DHT22;12364;47.810;8.810;2023-06-26T06:40:05;23.00;86.80
24232;DHT22;12364;47.810;8.810;2023-06-26T06:42:32;23.00;87.20
24232;DHT22;12364;47.810;8.810;2023-06-26T06:45:02;23.20;87.40
24232;DHT22;12364;47.810;8.810;2023-06-26T06:47:29;23.20;87.80
24232;DHT22;12364;47.810;8.810;2023-06-26T06:49:56;23.30;87.50
24232;DHT22;12364;47.810;8.810;2023-06-26T06:52:24;23.30;87.60
24232;DHT22;12364;47.810;8.810;2023-06-26T06:54:51;23.40;87.90
24232;DHT22;12364;47.810;8.810;2023-06-26T06:57:19;23.40;88.60
24232;DHT22;12364;47.810;8.810;2023-06-26T06:59:46;23.50;88.50
24232;DHT22;12364;47.810;8.810;2023-06-26T07:02:15;23.60;89.20
24232;DHT22;12364;47.810;8.810;2023-06-26T07:04:43;23.60;89.40
24232;DHT22;12364;47.810;8.810;2023-06-26T07:07:10;23.70;88.90
24232;DHT22;12364;47.810;8.810;2023-06-26T07:09:37;23.80;89.60
24232;DHT22;12364;47.810;8.810;2023-06-26T07:12:04;23.90;90.00
24232;DHT22;12364;47.810;8.810;2023-06-26T07:14:31;23.90;89.80
24232;DHT22;12364;47.810;8.810;2023-06-26T07:16:58;24.00;89.80
24232;DHT22;12364;47.810;8.810;2023-06-26T07:19:25;24.00;89.40
24232;DHT22;12364;47.810;8.810;2023-06-26T07:21:52;24.10;89.40
24232;DHT22;12364;47.810;8.810;2023-06-26T07:24:19;24.20;88.50
24232;DHT22;12364;47.810;8.810;2023-06-26T07:26:46;24.30;90.00
24232;DHT22;12364;47.810;8.810;2023-06-26T07:29:16;24.30;90.10
24232;DHT22;12364;47.810;8.810;2023-06-26T07:31:43;24.40;88.80
24232;DHT22;12364;47.810;8.810;2023-06-26T07:34:12;24.50;89.70
24232;DHT22;12364;47.810;8.810;2023-06-26T07:36:39;24.60;89.80
24232;DHT22;12364;47.810;8.810;2023-06-26T07:39:06;24.70;89.60
24232;DHT22;12364;47.810;8.810;2023-06-26T07:41:34;24.70;89.20
24232;DHT22;12364;47.810;8.810;2023-06-26T07:44:01;24.80;89.00
24232;DHT22;12364;47.810;8.810;2023-06-26T07:46:28;24.90;88.40
24232;DHT22;12364;47.810;8.810;2023-06-26T07:48:55;24.90;88.30
24232;DHT22;12364;47.810;8.810;2023-06-26T07:51:22;25.00;88.40
24232;DHT22;12364;47.810;8.810;2023-06-26T07:53:50;25.00;89.30
24232;DHT22;12364;47.810;8.810;2023-06-26T07:56:17;25.10;89.40
24232;DHT22;12364;47.810;8.810;2023-06-26T07:58:44;25.20;89.70
24232;DHT22;12364;47.810;8.810;2023-06-26T08:01:11;25.20;86.60
24232;DHT22;12364;47.810;8.810;2023-06-26T08:03:38;25.30;86.80
24232;DHT22;12364;47.810;8.810;2023-06-26T08:06:07;25.30;86.70
24232;DHT22;12364;47.810;8.810;2023-06-26T08:08:36;25.40;87.40
24232;DHT22;12364;47.810;8.810;2023-06-26T08:11:03;25.50;87.10
24232;DHT22;12364;47.810;8.810;2023-06-26T08:13:30;25.50;86.10
24232;DHT22;12364;47.810;8.810;2023-06-26T08:15:57;25.50;86.50
24232;DHT22;12364;47.810;8.810;2023-06-26T08:18:24;25.50;86.40
24232;DHT22;12364;47.810;8.810;2023-06-26T08:20:51;25.50;87.50
24232;DHT22;12364;47.810;8.810;2023-06-26T08:23:18;25.60;86.50
24232;DHT22;12364;47.810;8.810;2023-06-26T08:25:45;25.70;85.70
24232;DHT22;12364;47.810;8.810;2023-06-26T08:28:13;25.70;85.80
24232;DHT22;12364;47.810;8.810;2023-06-26T08:30:40;25.80;86.70
24232;DHT22;12364;47.810;8.810;2023-06-26T08:33:08;25.80;86.50
24232;DHT22;12364;47.810;8.810;2023-06-26T08:35:38;25.90;86.10
24232;DHT22;12364;47.810;8.810;2023-06-26T08:38:05;25.90;85.00
24232;DHT22;12364;47.810;8.810;2023-06-26T08:40:32;25.90;85.20
24232;DHT22;12364;47.810;8.810;2023-06-26T08:43:00;26.00;85.70
24232;DHT22;12364;47.810;8.810;2023-06-26T08:45:27;26.10;86.10
24232;DHT22;12364;47.810;8.810;2023-06-26T08:47:55;26.10;86.10
24232;DHT22;12364;47.810;8.810;2023-06-26T08:50:22;26.20;84.60
24232;DHT22;12364;47.810;8.810;2023-06-26T08:52:53;26.30;85.30
24232;DHT22;12364;47.810;8.810;2023-06-26T08:55:22;26.30;84.10
24232;DHT22;12364;47.810;8.810;2023-06-26T08:57:51;26.40;86.00
24232;DHT22;12364;47.810;8.810;2023-06-26T09:00:19;26.40;84.60
24232;DHT22;12364;47.810;8.810;2023-06-26T09:02:46;26.40;85.30
24232;DHT22;12364;47.810;8.810;2023-06-26T09:05:14;26.50;85.40
24232;DHT22;12364;47.810;8.810;2023-06-26T09:07:41;26.50;85.20
24232;DHT22;12364;47.810;8.810;2023-06-26T09:10:08;26.60;84.70
24232;DHT22;12364;47.810;8.810;2023-06-26T09:12:36;26.70;84.30
24232;DHT22;12364;47.810;8.810;2023-06-26T09:15:03;26.80;84.40
24232;DHT22;12364;47.810;8.810;2023-06-26T09:17:33;26.80;83.20
24232;DHT22;12364;47.810;8.810;2023-06-26T09:20:00;26.80;82.00
24232;DHT22;12364;47.810;8.810;2023-06-26T09:22:28;26.80;82.90
24232;DHT22;12364;47.810;8.810;2023-06-26T09:24:57;26.90;83.00
24232;DHT22;12364;47.810;8.810;2023-06-26T09:27:24;26.90;82.30
24232;DHT22;12364;47.810;8.810;2023-06-26T09:29:51;27.00;83.40
24232;DHT22;12364;47.810;8.810;2023-06-26T09:32:18;27.00;82.10
24232;DHT22;12364;47.810;8.810;2023-06-26T09:34:45;27.00;83.30
24232;DHT22;12364;47.810;8.810;2023-06-26T09:37:12;27.10;82.30
24232;DHT22;12364;47.810;8.810;2023-06-26T09:39:40;27.10;82.50
24232;DHT22;12364;47.810;8.810;2023-06-26T09:42:07;27.20;81.70
24232;DHT22;12364;47.810;8.810;2023-06-26T09:44:34;27.30;81.90
24232;DHT22;12364;47.810;8.810;2023-06-26T09:47:01;27.40;81.90
24232;DHT22;12364;47.810;8.810;2023-06-26T09:49:29;27.40;81.50
24232;DHT22;12364;47.810;8.810;2023-06-26T09:51:59;27.50;81.40
24232;DHT22;12364;47.810;8.810;2023-06-26T09:54:26;27.50;80.70
24232;DHT22;12364;47.810;8.810;2023-06-26T09:56:57;27.60;80.60
24232;DHT22;12364;47.810;8.810;2023-06-26T09:59:33;27.60;80.30
24232;DHT22;12364;47.810;8.810;2023-06-26T10:02:00;27.70;80.50
24232;DHT22;12364;47.810;8.810;2023-06-26T10:04:27;27.70;80.30
24232;DHT22;12364;47.810;8.810;2023-06-26T10:06:55;27.70;80.30
24232;DHT22;12364;47.810;8.810;2023-06-26T10:09:23;27.80;79.00
24232;DHT22;12364;47.810;8.810;2023-06-26T10:14:28;27.80;79.70
24232;DHT22;12364;47.810;8.810;2023-06-26T10:16:57;27.80;79.40
24232;DHT22;12364;47.810;8.810;2023-06-26T10:19:25;27.80;79.80
24232;DHT22;12364;47.810;8.810;2023-06-26T10:21:53;27.90;79.60
24232;DHT22;12364;47.810;8.810;2023-06-26T10:24:20;28.00;78.90
24232;DHT22;12364;47.810;8.810;2023-06-26T10:26:49;28.00;79.20
24232;DHT22;12364;47.810;8.810;2023-06-26T10:29:16;28.00;78.80
24232;DHT22;12364;47.810;8.810;2023-06-26T10:31:45;28.10;78.20
24232;DHT22;12364;47.810;8.810;2023-06-26T10:34:13;28.10;77.40
24232;DHT22;12364;47.810;8.810;2023-06-26T10:36:40;28.20;77.20
24232;DHT22;12364;47.810;8.810;2023-06-26T10:39:07;28.20;77.30
24232;DHT22;12364;47.810;8.810;2023-06-26T10:41:38;28.30;76.20
24232;DHT22;12364;47.810;8.810;2023-06-26T10:44:22;28.30;76.70
24232;DHT22;12364;47.810;8.810;2023-06-26T10:49:17;28.30;76.20
24232;DHT22;12364;47.810;8.810;2023-06-26T10:51:50;28.40;74.90
24232;DHT22;12364;47.810;8.810;2023-06-26T10:54:18;28.50;75.60
24232;DHT22;12364;47.810;8.810;2023-06-26T10:56:54;28.50;74.80
24232;DHT22;12364;47.810;8.810;2023-06-26T10:59:24;28.50;75.10
24232;DHT22;12364;47.810;8.810;2023-06-26T11:02:01;28.50;75.10
24232;DHT22;12364;47.810;8.810;2023-06-26T11:04:45;28.60;75.60
24232;DHT22;12364;47.810;8.810;2023-06-26T11:07:25;28.60;73.80
24232;DHT22;12364;47.810;8.810;2023-06-26T11:09:59;28.70;75.10
24232;DHT22;12364;47.810;8.810;2023-06-26T11:12:42;28.80;74.10
24232;DHT22;12364;47.810;8.810;2023-06-26T11:15:10;28.80;73.20
24232;DHT22;12364;47.810;8.810;2023-06-26T11:17:37;28.80;73.80
24232;DHT22;12364;47.810;8.810;2023-06-26T11:20:05;28.90;72.50
24232;DHT22;12364;47.810;8.810;2023-06-26T11:22:34;28.90;72.60
24232;DHT22;12364;47.810;8.810;2023-06-26T11:25:02;29.00;73.10
24232;DHT22;12364;47.810;8.810;2023-06-26T11:27:40;28.90;72.70
24232;DHT22;12364;47.810;8.810;2023-06-26T11:30:08;29.00;72.50
24232;DHT22;12364;47.810;8.810;2023-06-26T11:32:38;29.10;72.00
24232;DHT22;12364;47.810;8.810;2023-06-26T11:35:06;29.00;71.80
24232;DHT22;12364;47.810;8.810;2023-06-26T11:37:33;29.00;72.40
24232;DHT22;12364;47.810;8.810;2023-06-26T11:40:15;29.10;72.10
24232;DHT22;12364;47.810;8.810;2023-06-26T11:42:42;29.00;71.10
24232;DHT22;12364;47.810;8.810;2023-06-26T11:45:09;29.10;71.70
24232;DHT22;12364;47.810;8.810;2023-06-26T11:47:37;29.20;72.70
24232;DHT22;12364;47.810;8.810;2023-06-26T11:50:05;29.20;72.50
24232;DHT22;12364;47.810;8.810;2023-06-26T11:52:33;29.20;73.20
24232;DHT22;12364;47.810;8.810;2023-06-26T11:55:00;29.30;72.40
24232;DHT22;12364;47.810;8.810;2023-06-26T11:57:27;29.20;73.50
24232;DHT22;12364;47.810;8.810;2023-06-26T11:59:54;29.20;74.80
24232;DHT22;12364;47.810;8.810;2023-06-26T12:02:21;29.10;75.40
24232;DHT22;12364;47.810;8.810;2023-06-26T12:04:48;29.10;75.80
24232;DHT22;12364;47.810;8.810;2023-06-26T12:07:15;29.20;76.60
24232;DHT22;12364;47.810;8.810;2023-06-26T12:09:44;29.10;77.10
24232;DHT22;12364;47.810;8.810;2023-06-26T12:12:13;29.00;76.60
24232;DHT22;12364;47.810;8.810;2023-06-26T12:14:41;29.00;77.20
24232;DHT22;12364;47.810;8.810;2023-06-26T12:17:09;29.10;77.30
24232;DHT22;12364;47.810;8.810;2023-06-26T12:19:37;29.10;76.80
24232;DHT22;12364;47.810;8.810;2023-06-26T12:22:08;29.10;77.00
24232;DHT22;12364;47.810;8.810;2023-06-26T12:24:38;29.10;77.40
24232;DHT22;12364;47.810;8.810;2023-06-26T12:27:09;29.00;77.40
24232;DHT22;12364;47.810;8.810;2023-06-26T12:29:37;29.10;77.00
24232;DHT22;12364;47.810;8.810;2023-06-26T12:32:07;29.20;76.60
24232;DHT22;12364;47.810;8.810;2023-06-26T12:34:35;29.20;76.50
24232;DHT22;12364;47.810;8.810;2023-06-26T12:37:06;29.30;76.00
24232;DHT22;12364;47.810;8.810;2023-06-26T12:39:47;29.30;77.20
24232;DHT22;12364;47.810;8.810;2023-06-26T12:42:18;29.30;76.20
24232;DHT22;12364;47.810;8.810;2023-06-26T12:44:45;29.40;75.60
24232;DHT22;12364;47.810;8.810;2023-06-26T12:47:13;29.40;76.20
24232;DHT22;12364;47.810;8.810;2023-06-26T12:49:41;29.40;76.10
24232;DHT22;12364;47.810;8.810;2023-06-26T12:52:10;29.40;76.10
24232;DHT22;12364;47.810;8.810;2023-06-26T12:54:40;29.40;75.80
24232;DHT22;12364;47.810;8.810;2023-06-26T12:57:08;29.50;76.10
24232;DHT22;12364;47.810;8.810;2023-06-26T12:59:36;29.50;75.80
24232;DHT22;12364;47.810;8.810;2023-06-26T13:02:04;29.60;77.30
24232;DHT22;12364;47.810;8.810;2023-06-26T13:04:31;29.60;76.60
24232;DHT22;12364;47.810;8.810;2023-06-26T13:06:58;29.60;75.00
24232;DHT22;12364;47.810;8.810;2023-06-26T13:09:26;29.60;75.10
24232;DHT22;12364;47.810;8.810;2023-06-26T13:11:53;29.60;75.20
24232;DHT22;12364;47.810;8.810;2023-06-26T13:14:20;29.70;76.00
24232;DHT22;12364;47.810;8.810;2023-06-26T13:16:47;29.80;76.40
24232;DHT22;12364;47.810;8.810;2023-06-26T13:19:15;29.80;74.80
24232;DHT22;12364;47.810;8.810;2023-06-26T13:21:42;29.90;73.30
24232;DHT22;12364;47.810;8.810;2023-06-26T13:24:09;29.90;72.90
24232;DHT22;12364;47.810;8.810;2023-06-26T13:26:36;29.90;73.20
24232;DHT22;12364;47.810;8.810;2023-06-26T13:29:04;30.00;72.60
24232;DHT22;12364;47.810;8.810;2023-06-26T13:31:32;30.00;73.70
24232;DHT22;12364;47.810;8.810;2023-06-26T13:33:59;30.00;73.00
24232;DHT22;12364;47.810;8.810;2023-06-26T13:36:27;30.00;73.30
24232;DHT22;12364;47.810;8.810;2023-06-26T13:38:54;30.10;73.00
24232;DHT22;12364;47.810;8.810;2023-06-26T13:41:24;30.10;72.00
24232;DHT22;12364;47.810;8.810;2023-06-26T13:43:51;30.20;72.50
24232;DHT22;12364;47.810;8.810;2023-06-26T13:46:27;30.30;72.30
24232;DHT22;12364;47.810;8.810;2023-06-26T13:48:54;30.20;70.60
24232;DHT22;12364;47.810;8.810;2023-06-26T13:51:21;30.10;71.30
24232;DHT22;12364;47.810;8.810;2023-06-26T13:53:48;30.20;71.20
24232;DHT22;12364;47.810;8.810;2023-06-26T13:56:15;30.30;71.50
24232;DHT22;12364;47.810;8.810;2023-06-26T13:58:43;30.20;70.60
24232;DHT22;12364;47.810;8.810;2023-06-26T14:01:10;30.10;69.80
24232;DHT22;12364;47.810;8.810;2023-06-26T14:03:38;30.10;70.90
24232;DHT22;12364;47.810;8.810;2023-06-26T14:06:05;30.10;70.20
24232;DHT22;12364;47.810;8.810;2023-06-26T14:08:32;30.10;69.70
24232;DHT22;12364;47.810;8.810;2023-06-26T14:10:59;30.10;69.50
24232;DHT22;12364;47.810;8.810;2023-06-26T14:13:27;30.10;69.80
24232;DHT22;12364;47.810;8.810;2023-06-26T14:15:54;30.10;70.20
24232;DHT22;12364;47.810;8.810;2023-06-26T14:18:23;30.10;71.60
24232;DHT22;12364;47.810;8.810;2023-06-26T14:20:51;30.20;71.20
24232;DHT22;12364;47.810;8.810;2023-06-26T14:23:18;30.30;72.40
24232;DHT22;12364;47.810;8.810;2023-06-26T14:25:45;30.30;72.30
24232;DHT22;12364;47.810;8.810;2023-06-26T14:28:15;30.40;70.80
24232;DHT22;12364;47.810;8.810;2023-06-26T14:30:42;30.50;71.30
24232;DHT22;12364;47.810;8.810;2023-06-26T14:33:10;30.50;72.10
24232;DHT22;12364;47.810;8.810;2023-06-26T14:35:37;30.50;71.40
24232;DHT22;12364;47.810;8.810;2023-06-26T14:38:04;30.50;70.70
24232;DHT22;12364;47.810;8.810;2023-06-26T14:40:31;30.40;70.60
24232;DHT22;12364;47.810;8.810;2023-06-26T14:42:58;30.40;70.50
24232;DHT22;12364;47.810;8.810;2023-06-26T14:45:26;30.40;68.50
24232;DHT22;12364;47.810;8.810;2023-06-26T14:47:53;30.30;68.70
24232;DHT22;12364;47.810;8.810;2023-06-26T14:50:20;30.30;69.60
24232;DHT22;12364;47.810;8.810;2023-06-26T14:52:47;30.30;68.70
24232;DHT22;12364;47.810;8.810;2023-06-26T14:55:14;30.30;69.00
24232;DHT22;12364;47.810;8.810;2023-06-26T14:57:41;30.40;69.00
24232;DHT22;12364;47.810;8.810;2023-06-26T15:00:09;30.40;69.90
24232;DHT22;12364;47.810;8.810;2023-06-26T15:02:36;30.50;70.50
24232;DHT22;12364;47.810;8.810;2023-06-26T15:05:03;30.50;70.20
24232;DHT22;12364;47.810;8.810;2023-06-26T15:07:31;30.50;70.00
24232;DHT22;12364;47.810;8.810;2023-06-26T15:09:58;30.40;70.30
24232;DHT22;12364;47.810;8.810;2023-06-26T15:12:25;30.30;71.00
24232;DHT22;12364;47.810;8.810;2023-06-26T15:14:52;30.30;72.40
24232;DHT22;12364;47.810;8.810;2023-06-26T15:17:19;30.10;73.10
24232;DHT22;12364;47.810;8.810;2023-06-26T15:19:46;30.20;73.10
24232;DHT22;12364;47.810;8.810;2023-06-26T15:22:13;30.20;72.00
24232;DHT22;12364;47.810;8.810;2023-06-26T15:24:41;30.30;73.30
24232;DHT22;12364;47.810;8.810;2023-06-26T15:27:08;30.40;72.60
24232;DHT22;12364;47.810;8.810;2023-06-26T15:29:35;30.40;73.00
24232;DHT22;12364;47.810;8.810;2023-06-26T15:32:02;30.30;73.50
24232;DHT22;12364;47.810;8.810;2023-06-26T15:34:29;30.40;73.50
24232;DHT22;12364;47.810;8.810;2023-06-26T15:36:56;30.30;73.80
24232;DHT22;12364;47.810;8.810;2023-06-26T15:39:23;30.30;74.80
24232;DHT22;12364;47.810;8.810;2023-06-26T15:41:50;30.30;75.20
24232;DHT22;12364;47.810;8.810;2023-06-26T15:44:17;30.30;73.80
24232;DHT22;12364;47.810;8.810;2023-06-26T15:46:44;30.30;74.70
24232;DHT22;12364;47.810;8.810;2023-06-26T15:49:12;30.30;73.80
24232;DHT22;12364;47.810;8.810;2023-06-26T15:51:39;30.20;73.50
24232;DHT22;12364;47.810;8.810;2023-06-26T15:54:06;30.20;74.50
24232;DHT22;12364;47.810;8.810;2023-06-26T15:56:33;30.20;73.80
24232;DHT22;12364;47.810;8.810;2023-06-26T15:59:00;30.10;73.40
24232;DHT22;12364;47.810;8.810;2023-06-26T16:01:27;30.10;74.20
24232;DHT22;12364;47.810;8.810;2023-06-26T16:03:54;30.10;73.80
24232;DHT22;12364;47.810;8.810;2023-06-26T16:06:21;30.10;73.00
24232;DHT22;12364;47.810;8.810;2023-06-26T16:08:48;30.00;73.30
24232;DHT22;12364;47.810;8.810;2023-06-26T16:11:16;30.00;73.30
24232;DHT22;12364;47.810;8.810;2023-06-26T16:13:43;30.00;73.90
24232;DHT22;12364;47.810;8.810;2023-06-26T16:16:11;30.00;73.80
24232;DHT22;12364;47.810;8.810;2023-06-26T16:18:39;30.00;72.30
24232;DHT22;12364;47.810;8.810;2023-06-26T16:21:06;30.00;71.60
24232;DHT22;12364;47.810;8.810;2023-06-26T16:23:33;30.00;72.20
24232;DHT22;12364;47.810;8.810;2023-06-26T16:26:01;30.00;72.20
24232;DHT22;12364;47.810;8.810;2023-06-26T16:28:28;30.00;72.60
24232;DHT22;12364;47.810;8.810;2023-06-26T16:30:55;30.10;73.10
24232;DHT22;12364;47.810;8.810;2023-06-26T16:33:22;30.30;72.10
24232;DHT22;12364;47.810;8.810;2023-06-26T16:35:49;30.30;68.90
24232;DHT22;12364;47.810;8.810;2023-06-26T16:38:16;30.30;69.90
24232;DHT22;12364;47.810;8.810;2023-06-26T16:40:43;30.20;70.20
24232;DHT22;12364;47.810;8.810;2023-06-26T16:43:10;30.10;69.90
24232;DHT22;12364;47.810;8.810;2023-06-26T16:45:38;30.00;70.50
24232;DHT22;12364;47.810;8.810;2023-06-26T16:48:06;29.90;69.90
24232;DHT22;12364;47.810;8.810;2023-06-26T16:50:33;30.00;70.30
24232;DHT22;12364;47.810;8.810;2023-06-26T16:53:00;29.90;70.70
24232;DHT22;12364;47.810;8.810;2023-06-26T16:55:27;29.90;70.20
24232;DHT22;12364;47.810;8.810;2023-06-26T16:57:54;29.80;69.10
24232;DHT22;12364;47.810;8.810;2023-06-26T17:00:21;29.60;69.80
24232;DHT22;12364;47.810;8.810;2023-06-26T17:02:48;29.60;69.40
24232;DHT22;12364;47.810;8.810;2023-06-26T17:05:15;29.60;70.60
24232;DHT22;12364;47.810;8.810;2023-06-26T17:07:42;29.50;71.20
24232;DHT22;12364;47.810;8.810;2023-06-26T17:10:09;29.50;71.10
24232;DHT22;12364;47.810;8.810;2023-06-26T17:12:37;29.40;69.90
24232;DHT22;12364;47.810;8.810;2023-06-26T17:15:05;29.40;69.60
24232;DHT22;12364;47.810;8.810;2023-06-26T17:17:32;29.30;69.20
24232;DHT22;12364;47.810;8.810;2023-06-26T17:20:00;29.30;69.30
24232;DHT22;12364;47.810;8.810;2023-06-26T17:22:27;29.30;70.10
24232;DHT22;12364;47.810;8.810;2023-06-26T17:24:54;29.30;70.30
24232;DHT22;12364;47.810;8.810;2023-06-26T17:27:25;29.20;70.50
24232;DHT22;12364;47.810;8.810;2023-06-26T17:29:54;29.20;70.20
24232;DHT22;12364;47.810;8.810;2023-06-26T17:32:21;29.10;69.80
24232;DHT22;12364;47.810;8.810;2023-06-26T17:34:49;28.90;68.90
24232;DHT22;12364;47.810;8.810;2023-06-26T17:37:16;28.70;69.50
24232;DHT22;12364;47.810;8.810;2023-06-26T17:39:43;28.70;69.80
24232;DHT22;12364;47.810;8.810;2023-06-26T17:42:11;28.60;69.90
24232;DHT22;12364;47.810;8.810;2023-06-26T17:44:38;28.60;70.10
24232;DHT22;12364;47.810;8.810;2023-06-26T17:47:05;28.60;69.80
24232;DHT22;12364;47.810;8.810;2023-06-26T17:49:32;28.50;69.50
24232;DHT22;12364;47.810;8.810;2023-06-26T17:55:28;28.40;69.60
24232;DHT22;12364;47.810;8.810;2023-06-26T17:57:55;28.30;70.30
24232;DHT22;12364;47.810;8.810;2023-06-26T18:00:22;28.20;70.20
24232;DHT22;12364;47.810;8.810;2023-06-26T18:02:49;28.20;70.40
24232;DHT22;12364;47.810;8.810;2023-06-26T18:05:16;28.20;70.30
24232;DHT22;12364;47.810;8.810;2023-06-26T18:07:43;28.10;69.20
24232;DHT22;12364;47.810;8.810;2023-06-26T18:10:28;27.90;69.40
24232;DHT22;12364;47.810;8.810;2023-06-26T18:12:55;27.80;69.60
24232;DHT22;12364;47.810;8.810;2023-06-26T18:15:23;27.70;69.50
24232;DHT22;12364;47.810;8.810;2023-06-26T18:17:50;27.70;69.40
24232;DHT22;12364;47.810;8.810;2023-06-26T18:20:17;27.70;69.00
24232;DHT22;12364;47.810;8.810;2023-06-26T18:22:44;27.70;68.90
24232;DHT22;12364;47.810;8.810;2023-06-26T18:25:11;27.70;69.00
24232;DHT22;12364;47.810;8.810;2023-06-26T18:27:39;27.80;69.00
24232;DHT22;12364;47.810;8.810;2023-06-26T18:30:06;27.80;69.40
24232;DHT22;12364;47.810;8.810;2023-06-26T18:32:33;27.80;69.30
24232;DHT22;12364;47.810;8.810;2023-06-26T18:35:00;27.80;69.30
24232;DHT22;12364;47.810;8.810;2023-06-26T18:37:27;27.70;69.60
24232;DHT22;12364;47.810;8.810;2023-06-26T18:39:54;27.70;69.60
24232;DHT22;12364;47.810;8.810;2023-06-26T18:42:21;27.70;68.90
24232;DHT22;12364;47.810;8.810;2023-06-26T18:44:48;27.60;68.70
24232;DHT22;12364;47.810;8.810;2023-06-26T18:47:16;27.50;68.60
24232;DHT22;12364;47.810;8.810;2023-06-26T18:49:43;27.50;68.80
24232;DHT22;12364;47.810;8.810;2023-06-26T18:52:10;27.50;68.40
24232;DHT22;12364;47.810;8.810;2023-06-26T18:54:37;27.50;68.50
24232;DHT22;12364;47.810;8.810;2023-06-26T18:57:04;27.30;68.40
24232;DHT22;12364;47.810;8.810;2023-06-26T18:59:31;27.20;68.80
24232;DHT22;12364;47.810;8.810;2023-06-26T19:01:58;27.00;68.90
24232;DHT22;12364;47.810;8.810;2023-06-26T19:04:27;26.90;69.00
24232;DHT22;12364;47.810;8.810;2023-06-26T19:06:54;26.80;69.20
24232;DHT22;12364;47.810;8.810;2023-06-26T19:09:21;26.70;69.30
24232;DHT22;12364;47.810;8.810;2023-06-26T19:11:50;26.70;69.40
24232;DHT22;12364;47.810;8.810;2023-06-26T19:14:17;26.60;69.30
24232;DHT22;12364;47.810;8.810;2023-06-26T19:16:44;26.50;69.20
24232;DHT22;12364;47.810;8.810;2023-06-26T19:19:11;26.60;69.20
24232;DHT22;12364;47.810;8.810;2023-06-26T19:21:39;26.60;69.00
24232;DHT22;12364;47.810;8.810;2023-06-26T19:24:06;26.60;68.90
24232;DHT22;12364;47.810;8.810;2023-06-26T19:26:33;26.60;68.80
24232;DHT22;12364;47.810;8.810;2023-06-26T19:29:01;26.50;69.30